Time;durP1;ratioP1;P1;durP2;ratioP2;P2;SDS_P1;SDS_P2;PMS_P1;PMS_P2;Temp;Humidity;BMP_temperature;BMP_pressure;BME280_temperature;BME280_humidity;BME280_pressure;Samples;Min_cycle;Max_cycle;Signal;HPM_P1;HPM_P2
2022/07/02 00:01:26;;;;;;;31.80;20.92;;;20.90;99.90;;;;;;5092051;28;20215;-59
2022/07/02 00:03:57;;;;;;;25.38;20.08;;;20.90;99.90;;;;;;5092469;28;20181;-57
2022/07/02 00:06:30;;;;;;;30.17;20.52;;;20.90;99.90;;;;;;5092611;28;20165;-63
2022/07/02 00:08:56;;;;;;;27.27;20.00;;;20.80;99.90;;;;;;5092478;28;20248;-57
2022/07/02 00:11:25;;;;;;;31.90;20.52;;;20.80;99.90;;;;;;5092080;28;20846;-58
2022/07/02 00:13:51;;;;;;;27.60;18.80;;;20.80;99.90;;;;;;5092214;28;20192;-59
2022/07/02 00:16:17;;;;;;;24.52;18.98;;;20.70;99.90;;;;;;5092309;28;20177;-57
2022/07/02 00:18:43;;;;;;;30.73;20.67;;;20.60;99.90;;;;;;5091790;28;20547;-59
2022/07/02 00:21:09;;;;;;;27.48;20.73;;;20.60;99.90;;;;;;5092241;28;20188;-57
2022/07/02 00:23:34;;;;;;;26.60;20.67;;;20.50;99.90;;;;;;5091839;28;20181;-59
2022/07/02 00:26:22;;;;;;;31.85;21.08;;;20.40;99.90;;;;;;5092154;28;20586;-58
2022/07/02 00:29:06;;;;;;;30.00;22.23;;;20.30;99.90;;;;;;5091928;28;20177;-57
2022/07/02 00:31:37;;;;;;;37.13;22.10;;;20.20;99.90;;;;;;5091976;28;20177;-57
2022/07/02 00:34:03;;;;;;;26.58;20.63;;;20.10;99.90;;;;;;5087857;28;20177;-59
2022/07/02 00:36:31;;;;;;;30.85;20.30;;;20.10;99.90;;;;;;5071155;28;20196;-59
2022/07/02 00:38:58;;;;;;;32.00;22.58;;;20.10;99.90;;;;;;5071475;28;20573;-59
2022/07/02 00:41:26;;;;;;;35.17;22.55;;;20.00;99.90;;;;;;5071659;28;20181;-58
2022/07/02 00:43:52;;;;;;;32.00;23.08;;;20.00;99.90;;;;;;5083756;28;20561;-57
2022/07/02 00:46:21;;;;;;;34.28;22.00;;;19.90;99.90;;;;;;5091879;28;20188;-56
2022/07/02 00:48:47;;;;;;;37.45;22.95;;;19.90;99.90;;;;;;5091318;28;20173;-57
2022/07/02 00:51:13;;;;;;;35.67;23.52;;;20.00;99.90;;;;;;5073539;28;20242;-55
2022/07/02 00:53:38;;;;;;;38.92;22.98;;;20.00;99.90;;;;;;5073054;28;20197;-57
2022/07/02 00:56:04;;;;;;;30.83;22.65;;;20.00;99.90;;;;;;5091890;28;20180;-55
2022/07/02 00:58:32;;;;;;;36.03;23.05;;;20.00;99.90;;;;;;5091232;28;20216;-56
2022/07/02 01:00:59;;;;;;;31.27;23.40;;;20.10;99.90;;;;;;5091507;28;20185;-58
2022/07/02 01:03:26;;;;;;;35.92;23.08;;;20.10;99.90;;;;;;5091331;28;20177;-58
2022/07/02 01:05:53;;;;;;;27.77;21.05;;;20.20;99.90;;;;;;5091534;28;20184;-58
2022/07/02 01:11:10;;;;;;;32.25;22.30;;;20.10;99.90;;;;;;5091627;28;20200;-58
2022/07/02 01:13:35;;;;;;;30.33;22.10;;;20.10;99.90;;;;;;5091272;28;20238;-58
2022/07/02 01:16:01;;;;;;;29.48;21.85;;;20.10;99.90;;;;;;5073600;28;20182;-58
2022/07/02 01:18:27;;;;;;;29.02;22.63;;;20.00;99.90;;;;;;5091256;28;20216;-59
2022/07/02 01:20:53;;;;;;;31.40;23.42;;;20.00;99.90;;;;;;5091510;28;20181;-55
2022/07/02 01:23:19;;;;;;;29.30;22.08;;;20.00;99.90;;;;;;5091632;28;20176;-58
2022/07/02 01:25:52;;;;;;;30.08;22.23;;;19.90;99.90;;;;;;5091352;28;20176;-58
2022/07/02 01:28:19;;;;;;;30.42;21.30;;;19.80;99.90;;;;;;5091424;28;20507;-59
2022/07/02 01:30:45;;;;;;;30.70;21.45;;;19.80;99.90;;;;;;5091255;28;20189;-59
2022/07/02 01:33:11;;;;;;;33.42;21.40;;;19.80;99.90;;;;;;5091301;28;20177;-58
2022/07/02 01:35:36;;;;;;;31.83;21.08;;;19.70;99.90;;;;;;5073957;28;20512;-58
2022/07/02 01:38:02;;;;;;;36.50;21.05;;;19.70;99.90;;;;;;5071229;28;20236;-58
2022/07/02 01:40:28;;;;;;;31.73;21.55;;;19.70;99.90;;;;;;5053391;28;20190;-65
2022/07/02 01:42:54;;;;;;;28.63;20.70;;;19.80;99.90;;;;;;5075168;28;20181;-59
2022/07/02 01:45:20;;;;;;;28.63;20.92;;;19.80;99.90;;;;;;5091197;28;20181;-59
2022/07/02 01:47:46;;;;;;;31.95;21.77;;;19.80;99.90;;;;;;5072687;28;20200;-55
2022/07/02 01:50:11;;;;;;;27.67;20.98;;;19.70;99.90;;;;;;5091436;28;20180;-56
2022/07/02 01:52:37;;;;;;;27.80;20.25;;;19.70;99.90;;;;;;5072643;28;20177;-56
2022/07/02 01:55:03;;;;;;;29.05;22.52;;;19.70;99.90;;;;;;5091335;28;20550;-58
2022/07/02 01:57:33;;;;;;;33.28;22.73;;;19.70;99.90;;;;;;5090894;28;20213;-64
2022/07/02 01:59:59;;;;;;;29.45;20.75;;;19.70;99.90;;;;;;5092349;28;20226;-58
2022/07/02 02:02:25;;;;;;;29.90;22.30;;;19.80;99.90;;;;;;5094820;28;20177;-57
2022/07/02 02:04:51;;;;;;;30.50;21.98;;;19.80;99.90;;;;;;5094691;28;20185;-59
2022/07/02 02:07:16;;;;;;;28.60;21.90;;;19.80;99.90;;;;;;5094588;28;20225;-58
2022/07/02 02:09:42;;;;;;;32.88;24.02;;;19.80;99.90;;;;;;5080797;28;20268;-56
2022/07/02 02:12:08;;;;;;;32.65;23.15;;;19.70;99.90;;;;;;5063991;28;20228;-58
2022/07/02 02:14:35;;;;;;;33.30;23.90;;;19.70;99.90;;;;;;5054317;28;20583;-59
2022/07/02 02:17:01;;;;;;;39.22;23.52;;;19.60;99.90;;;;;;5054172;28;20210;-56
2022/07/02 02:19:26;;;;;;;33.03;23.65;;;19.60;99.90;;;;;;5054440;28;20269;-58
2022/07/02 02:21:52;;;;;;;44.42;25.60;;;19.50;99.90;;;;;;5053883;28;20175;-58
2022/07/02 02:24:18;;;;;;;31.50;23.90;;;19.50;99.90;;;;;;5054057;28;20194;-58
2022/07/02 02:26:44;;;;;;;35.72;24.63;;;19.50;99.90;;;;;;5053989;28;20186;-58
2022/07/02 02:29:10;;;;;;;34.63;24.58;;;19.60;99.90;;;;;;5003381;28;20194;-58
2022/07/02 02:31:36;;;;;;;31.95;24.23;;;19.50;99.90;;;;;;5053661;28;20182;-56
2022/07/02 02:34:01;;;;;;;34.85;23.30;;;19.60;99.90;;;;;;5054228;28;20614;-56
2022/07/02 02:36:27;;;;;;;30.33;22.73;;;19.50;99.90;;;;;;5053998;28;20183;-56
2022/07/02 02:38:53;;;;;;;32.85;22.02;;;19.50;99.90;;;;;;5053590;28;20182;-55
2022/07/02 02:41:19;;;;;;;30.27;22.42;;;19.50;99.90;;;;;;5053927;28;20182;-58
2022/07/02 02:43:44;;;;;;;37.17;22.95;;;19.40;99.90;;;;;;5075352;28;20196;-59
2022/07/02 02:46:10;;;;;;;35.75;23.55;;;19.50;99.90;;;;;;5094259;28;20641;-57
2022/07/02 02:48:37;;;;;;;30.63;22.73;;;19.50;99.90;;;;;;5093876;28;20213;-58
2022/07/02 02:51:04;;;;;;;31.90;22.98;;;19.50;99.90;;;;;;5094373;28;20218;-58
2022/07/02 02:53:31;;;;;;;41.15;23.00;;;19.50;99.90;;;;;;5093574;28;20192;-59
2022/07/02 02:55:58;;;;;;;25.20;19.90;;;19.50;99.90;;;;;;5093792;28;20173;-56
2022/07/02 02:58:24;;;;;;;34.20;21.10;;;19.50;99.90;;;;;;5093736;28;20298;-55
2022/07/02 03:00:51;;;;;;;28.23;20.80;;;19.60;99.90;;;;;;5075934;28;20207;-57
2022/07/02 03:03:16;;;;;;;29.50;20.52;;;19.60;99.90;;;;;;5075938;28;20173;-56
2022/07/02 03:05:42;;;;;;;33.78;21.05;;;19.60;99.90;;;;;;5093840;28;20238;-56
2022/07/02 03:08:08;;;;;;;28.48;19.75;;;19.70;99.90;;;;;;5093177;28;20233;-56
2022/07/02 03:10:34;;;;;;;26.80;19.80;;;19.80;99.90;;;;;;5093175;28;20579;-64
2022/07/02 03:12:59;;;;;;;27.20;19.33;;;19.90;99.90;;;;;;5093687;28;20255;-58
2022/07/02 03:15:25;;;;;;;29.40;18.88;;;19.90;99.90;;;;;;5094098;28;20219;-58
2022/07/02 03:17:51;;;;;;;29.27;19.50;;;20.00;99.90;;;;;;5093168;28;20638;-58
2022/07/02 03:20:17;;;;;;;31.88;18.67;;;20.00;99.90;;;;;;5093276;28;20720;-58
2022/07/02 03:22:43;;;;;;;31.08;19.50;;;20.10;99.90;;;;;;5092841;28;20179;-58
2022/07/02 03:25:09;;;;;;;33.28;19.58;;;20.20;99.90;;;;;;5075006;28;20701;-57
2022/07/02 03:27:35;;;;;;;29.20;19.52;;;20.30;99.90;;;;;;5092875;28;20189;-64
2022/07/02 03:30:01;;;;;;;26.95;19.20;;;20.40;99.90;;;;;;5093383;28;20201;-57
2022/07/02 03:32:28;;;;;;;37.13;19.70;;;20.50;99.90;;;;;;5075126;28;20657;-58
2022/07/02 03:34:57;;;;;;;34.17;20.10;;;20.60;99.90;;;;;;5081320;28;20213;-58
2022/07/02 03:37:26;;;;;;;32.03;20.45;;;20.80;99.90;;;;;;5072714;28;20735;-58
2022/07/02 03:39:52;;;;;;;28.83;19.80;;;20.90;99.90;;;;;;5072334;28;20180;-57
2022/07/02 03:42:18;;;;;;;27.00;19.05;;;21.10;99.90;;;;;;5072782;28;20264;-58
2022/07/02 03:44:43;;;;;;;32.33;19.38;;;21.10;99.90;;;;;;5091897;28;20276;-58
2022/07/02 03:47:09;;;;;;;23.42;18.58;;;21.20;99.90;;;;;;5092994;28;20623;-61
2022/07/02 03:49:35;;;;;;;29.85;18.95;;;21.20;99.90;;;;;;5092706;28;20238;-60
2022/07/02 03:52:01;;;;;;;28.92;18.75;;;21.30;99.90;;;;;;5092866;28;20173;-58
2022/07/02 03:54:26;;;;;;;22.85;18.25;;;21.40;99.90;;;;;;5092532;28;20182;-58
2022/07/02 03:56:52;;;;;;;26.80;18.95;;;21.40;99.90;;;;;;5092244;28;20208;-58
2022/07/02 03:59:18;;;;;;;32.38;18.90;;;21.50;99.90;;;;;;5092753;28;20611;-58
2022/07/02 04:01:44;;;;;;;32.75;19.45;;;21.60;99.90;;;;;;5092312;28;20181;-57
2022/07/02 04:04:09;;;;;;;31.50;20.10;;;21.60;99.90;;;;;;5092336;28;20230;-58
2022/07/02 04:06:35;;;;;;;25.27;18.33;;;21.70;99.90;;;;;;5074244;28;20234;-57
2022/07/02 04:09:01;;;;;;;33.58;20.23;;;21.80;99.90;;;;;;5091810;28;20330;-58
2022/07/02 04:11:27;;;;;;;28.48;19.23;;;21.90;99.90;;;;;;5092054;28;20711;-58
2022/07/02 04:13:52;;;;;;;25.58;18.45;;;22.00;99.90;;;;;;5091822;28;20264;-58
2022/07/02 04:16:18;;;;;;;29.17;19.17;;;22.10;99.90;;;;;;5074026;28;20222;-59
2022/07/02 04:18:44;;;;;;;33.00;19.38;;;22.10;99.90;;;;;;5091913;28;20231;-59
2022/07/02 04:21:09;;;;;;;23.55;18.70;;;22.20;99.90;;;;;;5092201;28;20218;-59
2022/07/02 04:23:35;;;;;;;24.02;18.30;;;22.30;99.90;;;;;;5091647;28;20188;-58
2022/07/02 04:26:01;;;;;;;32.28;19.83;;;22.30;99.90;;;;;;5091316;28;20181;-58
2022/07/02 04:28:27;;;;;;;36.97;21.88;;;22.40;99.90;;;;;;5092435;28;20268;-58
2022/07/02 04:30:53;;;;;;;34.47;21.98;;;22.50;99.90;;;;;;5091875;28;20189;-58
2022/07/02 04:33:18;;;;;;;34.72;21.65;;;22.60;99.90;;;;;;5092094;28;20226;-58
2022/07/02 04:35:44;;;;;;;29.90;20.88;;;22.70;99.90;;;;;;5073438;28;20618;-58
2022/07/02 04:38:10;;;;;;;31.00;19.80;;;22.80;99.90;;;;;;5053761;28;20213;-57
2022/07/02 04:40:36;;;;;;;33.20;20.27;;;22.80;99.90;;;;;;5071341;28;20561;-58
2022/07/02 04:43:02;;;;;;;32.50;20.05;;;23.00;99.90;;;;;;5076422;28;20257;-58
2022/07/02 04:45:28;;;;;;;31.55;19.45;;;23.00;99.90;;;;;;5091528;28;20226;-58
2022/07/02 04:47:53;;;;;;;30.38;20.65;;;23.00;99.90;;;;;;5091204;28;20238;-58
2022/07/02 04:50:19;;;;;;;34.63;24.60;;;23.00;99.90;;;;;;5091547;28;20188;-57
2022/07/02 04:52:48;;;;;;;37.63;25.33;;;23.00;99.90;;;;;;5091339;28;20177;-59
2022/07/02 04:55:14;;;;;;;33.40;24.50;;;22.90;99.90;;;;;;5091281;28;20606;-58
2022/07/02 04:57:40;;;;;;;34.72;24.45;;;22.80;99.90;;;;;;5091339;28;20217;-64
2022/07/02 05:00:07;;;;;;;46.22;24.55;;;22.80;99.90;;;;;;5091709;28;20642;-58
2022/07/02 05:02:33;;;;;;;41.65;24.45;;;22.90;99.90;;;;;;5091784;28;20234;-58
2022/07/02 05:04:59;;;;;;;46.42;26.80;;;23.00;99.90;;;;;;5090826;28;20193;-58
2022/07/02 05:07:25;;;;;;;52.75;25.95;;;23.10;99.90;;;;;;5091048;28;20229;-58
2022/07/02 05:09:51;;;;;;;32.88;19.30;;;23.20;99.90;;;;;;5090644;28;20646;-59
2022/07/02 05:12:16;;;;;;;29.98;17.40;;;23.40;99.90;;;;;;5091208;28;20542;-58
2022/07/02 05:14:42;;;;;;;30.02;18.30;;;23.50;99.90;;;;;;5090881;28;20176;-58
2022/07/02 05:17:08;;;;;;;34.03;18.45;;;23.70;99.90;;;;;;5090913;28;20205;-57
2022/07/02 05:19:33;;;;;;;37.97;18.92;;;23.90;99.90;;;;;;5091305;28;20321;-58
2022/07/02 05:21:59;;;;;;;27.15;17.65;;;24.10;99.90;;;;;;5091056;28;20691;-58
2022/07/02 05:24:25;;;;;;;33.58;18.58;;;24.10;99.90;;;;;;5073096;28;20184;-58
2022/07/02 05:26:51;;;;;;;34.75;16.73;;;24.20;99.90;;;;;;5055985;28;20272;-59
2022/07/02 05:29:16;;;;;;;27.80;17.25;;;24.20;99.90;;;;;;5091300;28;20177;-57
2022/07/02 05:31:42;;;;;;;34.42;17.40;;;24.40;99.90;;;;;;5090764;28;20181;-64
2022/07/02 05:34:08;;;;;;;40.38;20.10;;;24.50;99.90;;;;;;5087837;28;20627;-58
2022/07/02 05:36:33;;;;;;;31.13;18.10;;;24.50;99.90;;;;;;5074886;28;20182;-58
2022/07/02 05:38:59;;;;;;;31.05;17.60;;;24.60;99.90;;;;;;5074311;28;20631;-58
2022/07/02 05:41:25;;;;;;;24.30;16.77;;;24.50;99.90;;;;;;5056085;28;20216;-56
2022/07/02 05:43:50;;;;;;;27.98;16.13;;;24.60;99.90;;;;;;5068117;28;20181;-56
2022/07/02 05:46:16;;;;;;;26.55;15.70;;;24.60;99.90;;;;;;5094881;28;20188;-62
2022/07/02 05:48:42;;;;;;;24.27;15.57;;;24.70;99.90;;;;;;5094736;28;20249;-67
2022/07/02 05:51:08;;;;;;;24.50;16.30;;;24.90;99.90;;;;;;5094972;28;20165;-60
2022/07/02 05:53:33;;;;;;;28.65;15.13;;;24.90;99.90;;;;;;5076309;28;20173;-60
2022/07/02 05:55:59;;;;;;;20.23;15.20;;;25.10;99.90;;;;;;5094111;28;20203;-60
2022/07/02 05:58:25;;;;;;;22.25;15.32;;;25.30;99.90;;;;;;5094397;28;20209;-60
2022/07/02 06:00:51;;;;;;;19.80;14.73;;;25.40;99.90;;;;;;5093982;28;20181;-60
2022/07/02 06:03:16;;;;;;;26.70;15.63;;;25.40;99.90;;;;;;5094239;28;20185;-57
2022/07/02 06:08:26;;;;;;;31.90;14.57;;;25.40;99.90;;;;;;5093229;28;20646;-59
2022/07/02 06:10:53;;;;;;;21.02;13.43;;;25.50;99.90;;;;;;5091926;28;20181;-61
2022/07/02 06:13:18;;;;;;;23.10;13.15;;;25.60;99.90;;;;;;5092273;28;20200;-60
2022/07/02 06:15:44;;;;;;;21.02;12.90;;;25.70;99.90;;;;;;5091683;28;20586;-65
2022/07/02 06:18:12;;;;;;;21.98;13.07;;;25.70;99.90;;;;;;5063381;28;20214;-60
2022/07/02 06:20:38;;;;;;;19.13;12.73;;;25.80;99.90;;;;;;5072306;28;20197;-62
2022/07/02 06:23:04;;;;;;;18.70;11.60;;;25.80;99.90;;;;;;5072762;28;20189;-59
2022/07/02 06:25:30;;;;;;;22.17;12.80;;;25.90;99.90;;;;;;5065900;28;20930;-58
2022/07/02 06:27:56;;;;;;;23.52;11.70;;;26.00;99.90;;;;;;5073267;28;20192;-58
2022/07/02 06:30:23;;;;;;;17.40;10.70;;;26.10;99.90;;;;;;5073718;28;20186;-60
2022/07/02 06:32:49;;;;;;;13.85;10.45;;;26.20;99.90;;;;;;5073739;28;20266;-58
2022/07/02 06:35:15;;;;;;;24.38;17.70;;;26.30;99.90;;;;;;5068557;28;20182;-60
2022/07/02 06:37:41;;;;;;;16.83;12.00;;;26.40;99.90;;;;;;5044279;28;20233;-58
2022/07/02 06:40:07;;;;;;;15.82;10.73;;;26.50;99.90;;;;;;5068069;28;20547;-59
2022/07/02 06:42:33;;;;;;;18.52;11.38;;;26.60;99.90;;;;;;5072275;28;20930;-64
2022/07/02 06:45:00;;;;;;;13.27;9.73;;;26.70;99.90;;;;;;5068592;28;20201;-66
2022/07/02 06:47:26;;;;;;;12.65;9.65;;;26.80;99.90;;;;;;5068924;28;20186;-69
2022/07/02 06:49:55;;;;;;;20.25;10.05;;;26.90;99.90;;;;;;5069756;28;20193;-66
2022/07/02 06:52:21;;;;;;;14.48;9.32;;;27.20;99.90;;;;;;5069982;28;20200;-64
2022/07/02 06:54:47;;;;;;;28.58;10.20;;;27.30;99.90;;;;;;5063891;28;20189;-59
2022/07/02 06:57:13;;;;;;;25.50;9.73;;;27.50;99.90;;;;;;5072623;28;20229;-59
2022/07/02 06:59:39;;;;;;;15.90;10.65;;;27.50;99.20;;;;;;5073097;28;20186;-63
2022/07/02 07:02:06;;;;;;;18.13;9.35;;;27.60;99.20;;;;;;5064421;28;20187;-62
2022/07/02 07:04:33;;;;;;;21.95;9.55;;;27.60;98.90;;;;;;5072467;28;20194;-73
2022/07/02 07:07:03;;;;;;;13.15;8.65;;;27.70;98.60;;;;;;5072738;28;20201;-74
2022/07/02 07:09:29;;;;;;;16.42;9.30;;;27.80;98.30;;;;;;5071971;28;20336;-78
2022/07/02 07:11:55;;;;;;;23.35;10.35;;;27.90;98.10;;;;;;5055676;28;20706;-67
2022/07/02 07:14:21;;;;;;;24.50;10.88;;;28.00;98.20;;;;;;5074121;28;20181;-77
2022/07/02 07:16:47;;;;;;;15.93;9.60;;;28.20;98.10;;;;;;5071035;28;20669;-59
2022/07/02 07:19:13;;;;;;;19.50;10.35;;;28.30;98.10;;;;;;5071920;28;20186;-60
2022/07/02 07:21:41;;;;;;;15.73;10.10;;;28.60;98.10;;;;;;5073328;28;20248;-59
2022/07/02 07:24:08;;;;;;;24.10;11.35;;;29.00;97.00;;;;;;5072320;28;20184;-60
2022/07/02 07:26:35;;;;;;;18.17;10.70;;;29.30;97.00;;;;;;5054911;28;20265;-61
2022/07/02 07:29:01;;;;;;;18.08;11.30;;;29.50;96.70;;;;;;5072709;28;20181;-60
2022/07/02 07:31:27;;;;;;;22.20;10.60;;;29.60;96.40;;;;;;5054600;28;20549;-60
2022/07/02 07:33:55;;;;;;;21.13;11.55;;;29.60;96.90;;;;;;5070118;28;20185;-61
2022/07/02 07:36:23;;;;;;;21.00;11.23;;;29.90;96.40;;;;;;5053047;28;20209;-59
2022/07/02 07:38:50;;;;;;;21.48;10.05;;;30.10;96.20;;;;;;5052252;28;20225;-61
2022/07/02 07:41:16;;;;;;;19.60;10.95;;;30.20;95.60;;;;;;5052224;28;20624;-59
2022/07/02 07:43:42;;;;;;;17.48;10.88;;;30.20;96.10;;;;;;5073825;28;20541;-60
2022/07/02 07:46:08;;;;;;;22.58;11.60;;;30.40;96.00;;;;;;5089899;28;20177;-60
2022/07/02 07:48:34;;;;;;;17.58;10.93;;;30.50;96.00;;;;;;5072353;28;20293;-60
2022/07/02 07:51:00;;;;;;;16.45;10.27;;;30.50;95.80;;;;;;5072523;28;20264;-59
2022/07/02 07:53:26;;;;;;;20.42;11.55;;;30.20;95.70;;;;;;5072207;28;20676;-59
2022/07/02 07:55:52;;;;;;;27.23;11.50;;;29.80;96.50;;;;;;5072159;28;20182;-61
2022/07/02 07:58:18;;;;;;;18.17;10.68;;;29.60;96.90;;;;;;5071235;28;20217;-63
2022/07/02 08:00:45;;;;;;;14.93;10.45;;;29.40;97.20;;;;;;5071451;28;20189;-61
2022/07/02 08:03:13;;;;;;;14.20;10.98;;;29.30;97.20;;;;;;5072047;28;20200;-60
2022/07/02 08:05:39;;;;;;;16.40;10.23;;;29.10;97.70;;;;;;5072579;28;20177;-60
2022/07/02 08:08:07;;;;;;;14.65;10.90;;;29.20;97.70;;;;;;5072138;28;20232;-60
2022/07/02 08:10:33;;;;;;;17.88;10.90;;;29.30;97.20;;;;;;5071614;28;20271;-61
2022/07/02 08:12:59;;;;;;;23.00;10.57;;;29.30;97.20;;;;;;5071818;28;20627;-60
2022/07/02 08:15:26;;;;;;;22.70;11.23;;;29.50;97.00;;;;;;5072128;28;20205;-61
2022/07/02 08:17:53;;;;;;;12.82;10.65;;;29.90;96.10;;;;;;5070122;28;20217;-61
2022/07/02 08:20:18;;;;;;;14.55;9.90;;;30.20;95.90;;;;;;5071950;28;20291;-60
2022/07/02 08:22:46;;;;;;;18.45;11.25;;;30.50;95.00;;;;;;5071925;28;20178;-60
2022/07/02 08:25:14;;;;;;;19.98;11.10;;;30.40;94.80;;;;;;5072101;28;20189;-61
2022/07/02 08:27:40;;;;;;;14.00;10.50;;;30.50;95.40;;;;;;5071601;28;20206;-60
2022/07/02 08:30:07;;;;;;;17.15;9.95;;;30.30;94.90;;;;;;5071479;28;20192;-60
2022/07/02 08:32:33;;;;;;;13.45;10.30;;;30.00;95.10;;;;;;5071533;28;20205;-60
2022/07/02 08:34:59;;;;;;;17.45;10.13;;;29.90;95.50;;;;;;5060009;28;20298;-60
2022/07/02 08:37:25;;;;;;;15.43;11.25;;;29.70;95.10;;;;;;5051170;28;20691;-60
2022/07/02 08:39:51;;;;;;;17.50;10.05;;;29.80;95.20;;;;;;5051074;28;20178;-61
2022/07/02 08:42:23;;;;;;;22.27;10.65;;;29.40;94.90;;;;;;5051291;28;20178;-59
2022/07/02 08:44:52;;;;;;;18.95;10.43;;;29.30;95.50;;;;;;5091174;28;20199;-61
2022/07/02 08:47:19;;;;;;;16.70;10.82;;;29.30;95.30;;;;;;5079399;28;20189;-60
2022/07/02 08:49:47;;;;;;;16.67;10.48;;;29.30;95.40;;;;;;5071267;28;20182;-61
2022/07/02 08:52:17;;;;;;;13.77;9.80;;;29.20;95.30;;;;;;5071307;28;20174;-61
2022/07/02 08:54:44;;;;;;;14.27;10.05;;;29.30;95.10;;;;;;5071269;28;20178;-61
2022/07/02 08:57:12;;;;;;;13.38;9.15;;;29.10;94.80;;;;;;5070919;28;20205;-61
2022/07/02 08:59:38;;;;;;;20.00;9.43;;;29.00;95.00;;;;;;5070591;28;20201;-59
2022/07/02 09:02:04;;;;;;;20.42;10.32;;;28.90;95.40;;;;;;5052246;28;20224;-60
2022/07/02 09:04:32;;;;;;;14.95;8.85;;;28.90;95.40;;;;;;5070351;28;20625;-61
2022/07/02 09:07:01;;;;;;;16.88;10.65;;;29.00;95.10;;;;;;5071008;28;20243;-61
2022/07/02 09:09:28;;;;;;;13.20;9.50;;;29.10;95.20;;;;;;5052839;28;20256;-60
2022/07/02 09:11:54;;;;;;;15.15;9.43;;;29.00;95.10;;;;;;5071003;28;20189;-60
2022/07/02 09:14:20;;;;;;;15.60;9.50;;;29.00;95.20;;;;;;5071199;28;20182;-61
2022/07/02 09:16:47;;;;;;;15.15;10.48;;;29.00;94.90;;;;;;5069617;28;20186;-61
2022/07/02 09:19:13;;;;;;;17.30;10.02;;;28.90;94.90;;;;;;5070583;28;20523;-60
2022/07/02 09:21:46;;;;;;;15.07;9.45;;;28.80;95.20;;;;;;5070479;28;20188;-60
2022/07/02 09:24:12;;;;;;;22.35;9.85;;;28.80;94.90;;;;;;5070842;28;20190;-59
2022/07/02 09:26:37;;;;;;;21.15;11.23;;;28.80;95.00;;;;;;5070898;28;20185;-60
2022/07/02 09:29:04;;;;;;;24.98;10.77;;;28.90;95.30;;;;;;5070661;28;20182;-60
2022/07/02 09:31:31;;;;;;;14.65;10.40;;;29.10;95.10;;;;;;5069860;28;20286;-62
2022/07/02 09:33:58;;;;;;;15.82;10.02;;;29.20;94.70;;;;;;5067115;28;20262;-60
2022/07/02 09:36:24;;;;;;;21.10;9.45;;;29.30;94.20;;;;;;5050470;28;20175;-59
2022/07/02 09:38:53;;;;;;;18.02;9.45;;;29.80;93.80;;;;;;5049946;28;20236;-64
2022/07/02 09:41:21;;;;;;;15.25;9.38;;;30.30;92.80;;;;;;5050451;28;20272;-61
2022/07/02 09:43:59;;;;;;;16.00;9.23;;;30.40;93.00;;;;;;5072718;28;20177;-61
2022/07/02 09:46:25;;;;;;;22.58;11.10;;;30.60;92.50;;;;;;5085007;28;20631;-61
2022/07/02 09:48:50;;;;;;;20.83;10.57;;;30.70;92.10;;;;;;5069676;28;20188;-61
2022/07/02 09:51:17;;;;;;;13.27;9.10;;;30.70;92.10;;;;;;5069073;28;20189;-61
2022/07/02 09:53:54;;;;;;;20.48;10.30;;;31.30;91.70;;;;;;5070010;28;20220;-61
2022/07/02 09:56:21;;;;;;;20.25;10.70;;;31.60;91.30;;;;;;5070027;28;20290;-60
2022/07/02 09:58:48;;;;;;;19.75;11.38;;;31.90;90.60;;;;;;5070268;28;20210;-60
2022/07/02 10:01:21;;;;;;;12.98;9.43;;;32.10;90.20;;;;;;5069219;28;20214;-60
2022/07/02 10:03:52;;;;;;;12.05;10.15;;;32.20;88.90;;;;;;5070336;28;20185;-65
2022/07/02 10:06:18;;;;;;;13.55;10.63;;;32.10;87.20;;;;;;5070323;28;20173;-62
2022/07/02 10:08:45;;;;;;;14.07;10.10;;;32.20;87.10;;;;;;5049055;28;20652;-61
2022/07/02 10:11:12;;;;;;;14.80;10.05;;;32.00;86.10;;;;;;5050353;28;20291;-60
2022/07/02 10:13:40;;;;;;;19.88;11.02;;;32.20;86.20;;;;;;5050759;28;20181;-61
2022/07/02 10:16:15;;;;;;;14.93;8.43;;;32.40;84.80;;;;;;5049943;28;20174;-61
2022/07/02 10:18:42;;;;;;;12.85;7.65;;;32.30;83.10;;;;;;5049906;28;20213;-60
2022/07/02 10:21:11;;;;;;;16.30;8.80;;;32.20;82.50;;;;;;5051890;28;20178;-61
2022/07/02 10:23:38;;;;;;;16.83;8.25;;;32.30;82.00;;;;;;5054026;28;20539;-63
2022/07/02 10:26:04;;;;;;;10.63;8.35;;;32.50;81.90;;;;;;5054120;28;20232;-61
2022/07/02 10:28:30;;;;;;;15.48;8.88;;;32.30;81.20;;;;;;5053624;28;20186;-62
2022/07/02 10:30:56;;;;;;;12.60;9.20;;;32.50;80.90;;;;;;5053357;28;20667;-61
2022/07/02 10:33:43;;;;;;;14.25;7.28;;;32.60;79.60;;;;;;5053686;28;20178;-61
2022/07/02 10:36:12;;;;;;;17.88;8.93;;;32.50;77.60;;;;;;5033857;28;20186;-62
2022/07/02 10:38:39;;;;;;;14.90;8.18;;;32.70;78.20;;;;;;5033429;28;20256;-61
2022/07/02 10:41:06;;;;;;;15.40;9.57;;;33.00;78.00;;;;;;5033170;28;20656;-61
2022/07/02 10:43:34;;;;;;;16.50;9.23;;;33.40;77.40;;;;;;5051951;28;20177;-60
2022/07/02 10:46:13;;;;;;;17.58;9.25;;;33.00;77.00;;;;;;5072634;28;20190;-62
2022/07/02 10:48:50;;;;;;;15.77;8.90;;;32.90;78.10;;;;;;5053679;28;20186;-62
2022/07/02 10:51:23;;;;;;;18.95;8.75;;;33.10;78.30;;;;;;5053415;28;20216;-62
2022/07/02 10:53:57;;;;;;;16.95;7.90;;;33.10;75.30;;;;;;5053575;28;20671;-61
2022/07/02 10:56:23;;;;;;;18.02;7.72;;;33.10;74.30;;;;;;5053897;28;20555;-64
2022/07/02 10:58:49;;;;;;;10.65;7.57;;;33.00;75.40;;;;;;5053453;28;20221;-60
2022/07/02 11:01:18;;;;;;;16.00;8.73;;;32.80;74.90;;;;;;5053176;28;20174;-62
2022/07/02 11:03:58;;;;;;;15.10;8.48;;;32.70;76.30;;;;;;5053700;28;20643;-61
2022/07/02 11:06:31;;;;;;;12.18;8.13;;;32.50;76.50;;;;;;5053581;28;20677;-61
2022/07/02 11:09:02;;;;;;;13.60;8.15;;;32.60;75.70;;;;;;5071170;28;20236;-60
2022/07/02 11:11:40;;;;;;;11.75;7.70;;;32.70;75.10;;;;;;5073366;28;20197;-64
2022/07/02 11:14:05;;;;;;;12.68;7.28;;;32.70;75.10;;;;;;5073089;28;20185;-60
2022/07/02 11:16:37;;;;;;;14.90;7.40;;;32.80;72.80;;;;;;5072259;28;20207;-63
2022/07/02 11:19:05;;;;;;;10.13;7.03;;;33.40;74.20;;;;;;5073252;28;20677;-61
2022/07/02 11:21:31;;;;;;;15.00;8.10;;;34.30;73.30;;;;;;5072928;28;20544;-63
2022/07/02 11:23:58;;;;;;;17.35;7.85;;;35.00;70.70;;;;;;5072666;28;20627;-62
2022/07/02 11:26:27;;;;;;;9.80;7.65;;;35.20;68.10;;;;;;5073124;28;20208;-60
2022/07/02 11:28:55;;;;;;;13.38;7.50;;;35.00;68.60;;;;;;5073115;28;20184;-61
2022/07/02 11:31:23;;;;;;;18.90;8.60;;;34.90;68.90;;;;;;5072547;28;20205;-62
2022/07/02 11:33:54;;;;;;;17.92;7.82;;;34.40;69.60;;;;;;5072312;28;20174;-62
2022/07/02 11:36:21;;;;;;;16.48;9.00;;;34.20;71.10;;;;;;5072283;28;20189;-61
2022/07/02 11:38:49;;;;;;;17.05;8.02;;;34.30;70.30;;;;;;5072975;28;20680;-59
2022/07/02 11:41:21;;;;;;;11.75;7.00;;;34.20;69.70;;;;;;5072516;28;20226;-62
2022/07/02 11:43:52;;;;;;;19.75;8.00;;;34.20;69.30;;;;;;5083776;28;20200;-61
2022/07/02 11:46:21;;;;;;;13.32;7.57;;;35.00;68.40;;;;;;5088971;28;20197;-61
2022/07/02 11:48:48;;;;;;;18.95;9.35;;;36.70;64.80;;;;;;5072681;28;20211;-61
2022/07/02 11:51:14;;;;;;;15.82;7.97;;;38.40;62.10;;;;;;5072748;28;20197;-62
2022/07/02 11:53:41;;;;;;;12.40;7.72;;;39.60;57.70;;;;;;5071879;28;20236;-62
2022/07/02 11:56:11;;;;;;;14.60;7.15;;;40.70;56.10;;;;;;5072275;28;20627;-61
2022/07/02 11:58:39;;;;;;;13.57;7.05;;;42.20;52.90;;;;;;5072499;28;20217;-61
2022/07/02 12:01:15;;;;;;;20.17;7.75;;;43.10;49.20;;;;;;5071777;28;20220;-63
2022/07/02 12:03:45;;;;;;;11.38;7.72;;;43.80;47.90;;;;;;5072212;28;20181;-59
2022/07/02 12:06:11;;;;;;;13.68;7.88;;;43.70;46.60;;;;;;5071362;28;20280;-61
2022/07/02 12:08:37;;;;;;;14.70;7.65;;;43.50;46.20;;;;;;5071589;28;20303;-61
2022/07/02 12:11:16;;;;;;;14.32;7.35;;;43.10;47.10;;;;;;5072028;28;20181;-60
2022/07/02 12:13:43;;;;;;;12.02;7.15;;;43.50;44.90;;;;;;5071711;28;20176;-61
2022/07/02 12:31:13;;;;;;;5.80;2.00;;;46.30;38.10;;;;;;5138897;27;20243;-61
2022/07/02 12:33:39;;;;;;;7.97;3.40;;;46.10;38.70;;;;;;5149823;27;20257;-62
2022/07/02 12:36:06;;;;;;;8.60;6.30;;;46.40;37.80;;;;;;5134327;27;20214;-61
2022/07/02 12:38:44;;;;;;;24.08;8.60;;;46.30;37.40;;;;;;5129026;28;20236;-61
2022/07/02 12:41:11;;;;;;;15.85;6.00;;;46.80;35.40;;;;;;5129395;28;20175;-63
2022/07/02 12:43:37;;;;;;;7.60;5.30;;;46.60;34.80;;;;;;5134662;27;20198;-64
2022/07/02 12:46:07;;;;;;;10.55;6.28;;;47.80;34.70;;;;;;5149764;27;20213;-61
2022/07/02 12:48:43;;;;;;;8.18;5.65;;;48.70;33.40;;;;;;5118024;27;20253;-61
2022/07/02 12:51:10;;;;;;;8.23;3.90;;;47.00;34.60;;;;;;5109644;28;20187;-61